sensor_id;sensor_type;location;lat;lon;timestamp;temperature;humidity
51801;DHT22;37855;53.204;6.568;2024-01-10T00:01:35;-3.60;77.70
51801;DHT22;37855;53.204;6.568;2024-01-10T00:04:01;-3.70;77.30
51801;DHT22;37855;53.204;6.568;2024-01-10T00:06:28;-3.70;77.50
51801;DHT22;37855;53.204;6.568;2024-01-10T00:08:54;-3.60;77.40
51801;DHT22;37855;53.204;6.568;2024-01-10T00:11:22;-3.70;77.40
51801;DHT22;37855;53.204;6.568;2024-01-10T00:13:51;-3.60;77.30
51801;DHT22;37855;53.204;6.568;2024-01-10T00:16:25;-3.70;77.20
51801;DHT22;37855;53.204;6.568;2024-01-10T00:19:05;-3.70;77.50
51801;DHT22;37855;53.204;6.568;2024-01-10T00:29:15;-3.70;77.60
51801;DHT22;37855;53.204;6.568;2024-01-10T00:31:41;-3.60;77.40
51801;DHT22;37855;53.204;6.568;2024-01-10T00:34:31;-3.70;77.70
51801;DHT22;37855;53.204;6.568;2024-01-10T00:36:57;-3.70;77.60
51801;DHT22;37855;53.204;6.568;2024-01-10T00:39:23;-3.70;77.40
51801;DHT22;37855;53.204;6.568;2024-01-10T00:41:50;-3.70;77.40
51801;DHT22;37855;53.204;6.568;2024-01-10T00:44:16;-3.80;78.00
51801;DHT22;37855;53.204;6.568;2024-01-10T00:46:41;-3.80;77.90
51801;DHT22;37855;53.204;6.568;2024-01-10T00:49:07;-3.80;78.00
51801;DHT22;37855;53.204;6.568;2024-01-10T00:51:42;-3.90;78.20
51801;DHT22;37855;53.204;6.568;2024-01-10T00:54:23;-3.90;78.30
51801;DHT22;37855;53.204;6.568;2024-01-10T00:56:49;-3.90;78.40
51801;DHT22;37855;53.204;6.568;2024-01-10T00:59:31;-3.90;78.50
51801;DHT22;37855;53.204;6.568;2024-01-10T01:02:19;-3.90;78.80
51801;DHT22;37855;53.204;6.568;2024-01-10T01:05:06;-4.00;78.60
51801;DHT22;37855;53.204;6.568;2024-01-10T01:07:34;-3.90;78.50
51801;DHT22;37855;53.204;6.568;2024-01-10T01:10:15;-3.90;78.30
51801;DHT22;37855;53.204;6.568;2024-01-10T01:12:40;-3.80;78.20
51801;DHT22;37855;53.204;6.568;2024-01-10T01:15:20;-3.80;78.10
51801;DHT22;37855;53.204;6.568;2024-01-10T01:17:58;-3.80;78.00
51801;DHT22;37855;53.204;6.568;2024-01-10T01:20:43;-3.80;78.00
51801;DHT22;37855;53.204;6.568;2024-01-10T01:26:50;-4.00;78.50
51801;DHT22;37855;53.204;6.568;2024-01-10T01:29:16;-4.00;78.40
51801;DHT22;37855;53.204;6.568;2024-01-10T01:32:22;-4.10;78.50
51801;DHT22;37855;53.204;6.568;2024-01-10T01:35:14;-4.10;78.30
51801;DHT22;37855;53.204;6.568;2024-01-10T01:38:04;-4.10;78.20
51801;DHT22;37855;53.204;6.568;2024-01-10T01:40:34;-4.10;78.30
51801;DHT22;37855;53.204;6.568;2024-01-10T01:43:00;-4.10;78.20
51801;DHT22;37855;53.204;6.568;2024-01-10T01:49:53;-4.10;77.90
51801;DHT22;37855;53.204;6.568;2024-01-10T01:52:30;-4.10;77.90
51801;DHT22;37855;53.204;6.568;2024-01-10T01:54:59;-4.10;77.80
51801;DHT22;37855;53.204;6.568;2024-01-10T01:57:28;-4.10;78.00
51801;DHT22;37855;53.204;6.568;2024-01-10T02:03:35;-4.10;78.10
51801;DHT22;37855;53.204;6.568;2024-01-10T02:06:13;-4.10;78.10
51801;DHT22;37855;53.204;6.568;2024-01-10T02:08:51;-4.10;78.20
51801;DHT22;37855;53.204;6.568;2024-01-10T02:11:40;-4.10;78.20
51801;DHT22;37855;53.204;6.568;2024-01-10T02:14:08;-4.10;78.10
51801;DHT22;37855;53.204;6.568;2024-01-10T02:24:02;-4.20;79.50
51801;DHT22;37855;53.204;6.568;2024-01-10T02:26:30;-4.30;79.70
51801;DHT22;37855;53.204;6.568;2024-01-10T02:29:06;-4.30;79.80
51801;DHT22;37855;53.204;6.568;2024-01-10T02:31:31;-4.30;79.80
51801;DHT22;37855;53.204;6.568;2024-01-10T02:34:03;-4.30;80.00
51801;DHT22;37855;53.204;6.568;2024-01-10T02:36:34;-4.30;80.30
51801;DHT22;37855;53.204;6.568;2024-01-10T02:39:00;-4.30;80.10
51801;DHT22;37855;53.204;6.568;2024-01-10T02:41:26;-4.30;80.30
51801;DHT22;37855;53.204;6.568;2024-01-10T02:47:55;-4.40;80.40
51801;DHT22;37855;53.204;6.568;2024-01-10T02:50:43;-4.30;80.30
51801;DHT22;37855;53.204;6.568;2024-01-10T02:53:31;-4.30;80.40
51801;DHT22;37855;53.204;6.568;2024-01-10T02:56:12;-4.30;80.30
51801;DHT22;37855;53.204;6.568;2024-01-10T03:06:34;-4.30;81.00
51801;DHT22;37855;53.204;6.568;2024-01-10T03:09:16;-4.20;80.50
51801;DHT22;37855;53.204;6.568;2024-01-10T03:19:28;-4.30;80.30
51801;DHT22;37855;53.204;6.568;2024-01-10T03:22:19;-4.30;80.10
51801;DHT22;37855;53.204;6.568;2024-01-10T03:25:06;-4.20;79.80
51801;DHT22;37855;53.204;6.568;2024-01-10T03:27:51;-4.30;79.80
51801;DHT22;37855;53.204;6.568;2024-01-10T03:30:46;-4.20;79.50
51801;DHT22;37855;53.204;6.568;2024-01-10T03:39:38;-4.30;78.90
51801;DHT22;37855;53.204;6.568;2024-01-10T03:42:22;-4.20;78.70
51801;DHT22;37855;53.204;6.568;2024-01-10T03:45:18;-4.20;78.70
51801;DHT22;37855;53.204;6.568;2024-01-10T03:47:52;-4.20;78.20
51801;DHT22;37855;53.204;6.568;2024-01-10T03:50:27;-4.20;77.90
51801;DHT22;37855;53.204;6.568;2024-01-10T03:53:10;-4.20;77.90
51801;DHT22;37855;53.204;6.568;2024-01-10T03:55:51;-4.20;77.70
51801;DHT22;37855;53.204;6.568;2024-01-10T03:58:23;-4.20;77.50
51801;DHT22;37855;53.204;6.568;2024-01-10T04:01:11;-4.20;77.70
51801;DHT22;37855;53.204;6.568;2024-01-10T04:03:37;-4.20;77.80
51801;DHT22;37855;53.204;6.568;2024-01-10T04:06:33;-4.20;77.80
51801;DHT22;37855;53.204;6.568;2024-01-10T04:20:17;-4.20;77.80
51801;DHT22;37855;53.204;6.568;2024-01-10T04:23:00;-4.30;77.80
51801;DHT22;37855;53.204;6.568;2024-01-10T04:25:33;-4.10;77.40
51801;DHT22;37855;53.204;6.568;2024-01-10T04:28:02;-4.30;77.80
51801;DHT22;37855;53.204;6.568;2024-01-10T04:30:57;-4.30;78.00
51801;DHT22;37855;53.204;6.568;2024-01-10T04:55:30;-4.30;77.90
51801;DHT22;37855;53.204;6.568;2024-01-10T04:58:21;-4.20;77.90
51801;DHT22;37855;53.204;6.568;2024-01-10T05:01:05;-4.20;77.50
51801;DHT22;37855;53.204;6.568;2024-01-10T05:03:56;-4.30;78.00
51801;DHT22;37855;53.204;6.568;2024-01-10T09:32:35;-4.00;77.30
51801;DHT22;37855;53.204;6.568;2024-01-10T09:38:51;-3.90;76.50
51801;DHT22;37855;53.204;6.568;2024-01-10T09:46:16;-3.70;75.60
51801;DHT22;37855;53.204;6.568;2024-01-10T09:48:45;-3.60;75.30
51801;DHT22;37855;53.204;6.568;2024-01-10T09:57:36;-3.50;73.90
51801;DHT22;37855;53.204;6.568;2024-01-10T10:03:09;-3.40;72.20
51801;DHT22;37855;53.204;6.568;2024-01-10T10:05:50;-3.30;72.00
51801;DHT22;37855;53.204;6.568;2024-01-10T10:08:24;-3.20;71.40
51801;DHT22;37855;53.204;6.568;2024-01-10T10:10:56;-3.20;70.70
51801;DHT22;37855;53.204;6.568;2024-01-10T10:13:25;-3.10;68.90
51801;DHT22;37855;53.204;6.568;2024-01-10T10:16:10;-3.10;67.50
51801;DHT22;37855;53.204;6.568;2024-01-10T10:24:53;-3.00;66.30
51801;DHT22;37855;53.204;6.568;2024-01-10T10:27:58;-2.90;66.60
51801;DHT22;37855;53.204;6.568;2024-01-10T10:43:13;-2.60;64.90
51801;DHT22;37855;53.204;6.568;2024-01-10T10:46:12;-2.60;64.00
51801;DHT22;37855;53.204;6.568;2024-01-10T10:52:04;-2.50;64.00
51801;DHT22;37855;53.204;6.568;2024-01-10T10:55:17;-2.40;63.90
51801;DHT22;37855;53.204;6.568;2024-01-10T10:58:01;-2.40;64.80
51801;DHT22;37855;53.204;6.568;2024-01-10T11:00:31;-2.40;64.40
51801;DHT22;37855;53.204;6.568;2024-01-10T11:03:16;-2.40;64.00
51801;DHT22;37855;53.204;6.568;2024-01-10T11:09:13;-2.30;64.80
51801;DHT22;37855;53.204;6.568;2024-01-10T11:24:09;-1.90;64.10
51801;DHT22;37855;53.204;6.568;2024-01-10T11:29:46;-1.90;63.70
51801;DHT22;37855;53.204;6.568;2024-01-10T11:39:44;-1.90;60.20
51801;DHT22;37855;53.204;6.568;2024-01-10T11:42:10;-1.90;59.40
51801;DHT22;37855;53.204;6.568;2024-01-10T11:55:50;-1.80;59.80
51801;DHT22;37855;53.204;6.568;2024-01-10T11:58:24;-1.80;60.40
51801;DHT22;37855;53.204;6.568;2024-01-10T12:00:50;-1.70;60.60
51801;DHT22;37855;53.204;6.568;2024-01-10T12:06:20;-1.60;60.90
51801;DHT22;37855;53.204;6.568;2024-01-10T12:08:57;-1.60;60.60
51801;DHT22;37855;53.204;6.568;2024-01-10T12:11:54;-1.60;61.40
51801;DHT22;37855;53.204;6.568;2024-01-10T12:22:06;-1.40;61.10
51801;DHT22;37855;53.204;6.568;2024-01-10T12:28:41;-1.40;60.60
51801;DHT22;37855;53.204;6.568;2024-01-10T12:31:37;-1.40;60.00
51801;DHT22;37855;53.204;6.568;2024-01-10T12:34:07;-1.50;60.50
51801;DHT22;37855;53.204;6.568;2024-01-10T12:36:38;-1.50;60.90
51801;DHT22;37855;53.204;6.568;2024-01-10T12:39:32;-1.40;61.00
51801;DHT22;37855;53.204;6.568;2024-01-10T12:42:15;-1.40;60.50
51801;DHT22;37855;53.204;6.568;2024-01-10T12:53:02;-1.40;60.40
51801;DHT22;37855;53.204;6.568;2024-01-10T12:55:46;-1.40;61.40
51801;DHT22;37855;53.204;6.568;2024-01-10T12:58:28;-1.40;61.20
51801;DHT22;37855;53.204;6.568;2024-01-10T13:00:53;-1.40;61.30
51801;DHT22;37855;53.204;6.568;2024-01-10T13:03:20;-1.40;61.30
51801;DHT22;37855;53.204;6.568;2024-01-10T13:05:47;-1.40;61.10
51801;DHT22;37855;53.204;6.568;2024-01-10T13:08:12;-1.40;61.40
51801;DHT22;37855;53.204;6.568;2024-01-10T13:11:04;-1.40;61.80
51801;DHT22;37855;53.204;6.568;2024-01-10T13:14:11;-1.40;61.90
51801;DHT22;37855;53.204;6.568;2024-01-10T13:16:37;-1.40;62.20
51801;DHT22;37855;53.204;6.568;2024-01-10T13:19:03;-1.40;62.40
51801;DHT22;37855;53.204;6.568;2024-01-10T13:21:45;-1.40;62.90
51801;DHT22;37855;53.204;6.568;2024-01-10T13:24:11;-1.40;62.80
51801;DHT22;37855;53.204;6.568;2024-01-10T13:26:37;-1.40;63.00
51801;DHT22;37855;53.204;6.568;2024-01-10T13:29:09;-1.30;62.90
51801;DHT22;37855;53.204;6.568;2024-01-10T13:31:44;-1.30;62.70
51801;DHT22;37855;53.204;6.568;2024-01-10T13:34:40;-1.30;62.70
51801;DHT22;37855;53.204;6.568;2024-01-10T13:37:09;-1.50;62.00
51801;DHT22;37855;53.204;6.568;2024-01-10T13:39:53;-1.40;62.20
51801;DHT22;37855;53.204;6.568;2024-01-10T13:42:18;-1.50;62.30
51801;DHT22;37855;53.204;6.568;2024-01-10T13:44:47;-1.50;62.40
51801;DHT22;37855;53.204;6.568;2024-01-10T13:47:13;-1.40;62.50
51801;DHT22;37855;53.204;6.568;2024-01-10T13:49:45;-1.40;62.60
51801;DHT22;37855;53.204;6.568;2024-01-10T13:52:11;-1.40;62.70
51801;DHT22;37855;53.204;6.568;2024-01-10T13:54:36;-1.40;62.60
51801;DHT22;37855;53.204;6.568;2024-01-10T14:00:43;-1.30;61.40
51801;DHT22;37855;53.204;6.568;2024-01-10T14:03:10;-1.30;61.40
51801;DHT22;37855;53.204;6.568;2024-01-10T14:05:36;-1.30;62.00
51801;DHT22;37855;53.204;6.568;2024-01-10T14:08:06;-1.30;62.30
51801;DHT22;37855;53.204;6.568;2024-01-10T14:17:16;-1.20;65.10
51801;DHT22;37855;53.204;6.568;2024-01-10T14:27:09;-1.20;65.80
51801;DHT22;37855;53.204;6.568;2024-01-10T14:29:55;-1.40;66.20
51801;DHT22;37855;53.204;6.568;2024-01-10T14:32:24;-1.40;66.50
51801;DHT22;37855;53.204;6.568;2024-01-10T14:35:07;-1.40;66.40
51801;DHT22;37855;53.204;6.568;2024-01-10T14:43:56;-1.50;66.10
51801;DHT22;37855;53.204;6.568;2024-01-10T14:46:22;-1.40;66.10
51801;DHT22;37855;53.204;6.568;2024-01-10T14:48:50;-1.40;65.70
51801;DHT22;37855;53.204;6.568;2024-01-10T14:51:15;-1.50;65.70
51801;DHT22;37855;53.204;6.568;2024-01-10T14:53:42;-1.60;65.70
51801;DHT22;37855;53.204;6.568;2024-01-10T14:56:08;-1.60;65.40
51801;DHT22;37855;53.204;6.568;2024-01-10T14:58:33;-1.60;65.40
51801;DHT22;37855;53.204;6.568;2024-01-10T15:00:59;-1.70;65.30
51801;DHT22;37855;53.204;6.568;2024-01-10T15:03:25;-1.70;65.50
51801;DHT22;37855;53.204;6.568;2024-01-10T15:05:57;-1.70;65.40
51801;DHT22;37855;53.204;6.568;2024-01-10T15:08:26;-1.70;65.80
51801;DHT22;37855;53.204;6.568;2024-01-10T15:11:03;-1.70;66.20
51801;DHT22;37855;53.204;6.568;2024-01-10T15:16:08;-1.70;66.20
51801;DHT22;37855;53.204;6.568;2024-01-10T15:18:34;-1.70;66.50
51801;DHT22;37855;53.204;6.568;2024-01-10T15:21:00;-1.70;66.70
51801;DHT22;37855;53.204;6.568;2024-01-10T15:23:26;-1.70;67.10
51801;DHT22;37855;53.204;6.568;2024-01-10T15:25:52;-1.70;67.50
51801;DHT22;37855;53.204;6.568;2024-01-10T15:28:33;-1.70;67.60
51801;DHT22;37855;53.204;6.568;2024-01-10T15:31:02;-1.80;68.20
51801;DHT22;37855;53.204;6.568;2024-01-10T15:33:28;-1.80;68.00
51801;DHT22;37855;53.204;6.568;2024-01-10T15:35:54;-1.80;68.10
51801;DHT22;37855;53.204;6.568;2024-01-10T15:38:20;-1.80;68.10
51801;DHT22;37855;53.204;6.568;2024-01-10T15:40:58;-1.90;68.10
51801;DHT22;37855;53.204;6.568;2024-01-10T15:43:26;-1.90;68.20
51801;DHT22;37855;53.204;6.568;2024-01-10T15:46:05;-1.90;68.40
51801;DHT22;37855;53.204;6.568;2024-01-10T15:48:32;-2.00;68.70
51801;DHT22;37855;53.204;6.568;2024-01-10T15:50:58;-2.10;69.00
51801;DHT22;37855;53.204;6.568;2024-01-10T15:53:24;-2.00;69.20
51801;DHT22;37855;53.204;6.568;2024-01-10T15:56:02;-2.10;69.60
51801;DHT22;37855;53.204;6.568;2024-01-10T15:58:28;-2.10;69.70
51801;DHT22;37855;53.204;6.568;2024-01-10T16:01:00;-2.10;70.00
51801;DHT22;37855;53.204;6.568;2024-01-10T16:03:35;-2.20;70.60
51801;DHT22;37855;53.204;6.568;2024-01-10T16:06:13;-2.20;71.60
51801;DHT22;37855;53.204;6.568;2024-01-10T16:08:38;-2.20;72.30
51801;DHT22;37855;53.204;6.568;2024-01-10T16:11:04;-2.30;73.00
51801;DHT22;37855;53.204;6.568;2024-01-10T16:13:48;-2.30;72.90
51801;DHT22;37855;53.204;6.568;2024-01-10T16:16:39;-2.30;72.50
51801;DHT22;37855;53.204;6.568;2024-01-10T16:19:05;-2.30;73.00
51801;DHT22;37855;53.204;6.568;2024-01-10T16:21:40;-2.30;73.30
51801;DHT22;37855;53.204;6.568;2024-01-10T16:31:25;-2.50;73.80
51801;DHT22;37855;53.204;6.568;2024-01-10T16:33:51;-2.50;74.00
51801;DHT22;37855;53.204;6.568;2024-01-10T16:36:17;-2.50;74.00
51801;DHT22;37855;53.204;6.568;2024-01-10T16:38:43;-2.50;73.80
51801;DHT22;37855;53.204;6.568;2024-01-10T16:41:22;-2.60;74.00
51801;DHT22;37855;53.204;6.568;2024-01-10T16:43:47;-2.60;74.10
51801;DHT22;37855;53.204;6.568;2024-01-10T16:46:16;-2.60;74.20
51801;DHT22;37855;53.204;6.568;2024-01-10T16:49:01;-2.70;74.30
51801;DHT22;37855;53.204;6.568;2024-01-10T16:51:29;-2.70;74.30
51801;DHT22;37855;53.204;6.568;2024-01-10T16:53:55;-2.60;74.10
51801;DHT22;37855;53.204;6.568;2024-01-10T16:56:20;-2.70;74.30
51801;DHT22;37855;53.204;6.568;2024-01-10T16:58:46;-2.70;74.30
51801;DHT22;37855;53.204;6.568;2024-01-10T17:01:21;-2.70;74.10
51801;DHT22;37855;53.204;6.568;2024-01-10T17:03:50;-2.80;74.50
51801;DHT22;37855;53.204;6.568;2024-01-10T17:06:17;-2.80;74.60
51801;DHT22;37855;53.204;6.568;2024-01-10T17:08:42;-2.80;74.40
51801;DHT22;37855;53.204;6.568;2024-01-10T17:11:18;-2.70;74.40
51801;DHT22;37855;53.204;6.568;2024-01-10T17:13:44;-2.80;74.60
51801;DHT22;37855;53.204;6.568;2024-01-10T17:16:21;-2.80;74.80
51801;DHT22;37855;53.204;6.568;2024-01-10T17:18:53;-2.80;74.80
51801;DHT22;37855;53.204;6.568;2024-01-10T17:21:21;-2.80;74.90
51801;DHT22;37855;53.204;6.568;2024-01-10T17:27:13;-3.00;75.20
51801;DHT22;37855;53.204;6.568;2024-01-10T17:29:57;-2.90;75.10
51801;DHT22;37855;53.204;6.568;2024-01-10T17:32:24;-3.00;75.30
51801;DHT22;37855;53.204;6.568;2024-01-10T17:34:50;-2.90;75.10
51801;DHT22;37855;53.204;6.568;2024-01-10T17:39:58;-3.00;75.30
51801;DHT22;37855;53.204;6.568;2024-01-10T17:42:36;-3.00;75.30
51801;DHT22;37855;53.204;6.568;2024-01-10T17:45:02;-3.00;75.30
51801;DHT22;37855;53.204;6.568;2024-01-10T17:47:41;-3.00;75.20
51801;DHT22;37855;53.204;6.568;2024-01-10T17:50:07;-3.00;75.00
51801;DHT22;37855;53.204;6.568;2024-01-10T17:52:33;-3.00;75.30
51801;DHT22;37855;53.204;6.568;2024-01-10T17:55:15;-3.10;75.30
51801;DHT22;37855;53.204;6.568;2024-01-10T17:57:41;-3.10;75.50
51801;DHT22;37855;53.204;6.568;2024-01-10T18:00:07;-3.10;75.50
51801;DHT22;37855;53.204;6.568;2024-01-10T18:02:41;-3.20;75.70
51801;DHT22;37855;53.204;6.568;2024-01-10T18:05:07;-3.20;75.90
51801;DHT22;37855;53.204;6.568;2024-01-10T18:07:32;-3.20;75.70
51801;DHT22;37855;53.204;6.568;2024-01-10T18:10:01;-3.20;75.60
51801;DHT22;37855;53.204;6.568;2024-01-10T18:12:28;-3.20;75.30
51801;DHT22;37855;53.204;6.568;2024-01-10T18:14:54;-3.20;75.60
51801;DHT22;37855;53.204;6.568;2024-01-10T18:17:19;-3.30;75.80
51801;DHT22;37855;53.204;6.568;2024-01-10T18:19:45;-3.30;75.90
51801;DHT22;37855;53.204;6.568;2024-01-10T18:22:11;-3.30;75.90
51801;DHT22;37855;53.204;6.568;2024-01-10T18:24:40;-3.40;76.20
51801;DHT22;37855;53.204;6.568;2024-01-10T18:27:32;-3.40;76.20
51801;DHT22;37855;53.204;6.568;2024-01-10T18:30:10;-3.40;76.20
51801;DHT22;37855;53.204;6.568;2024-01-10T18:32:49;-3.40;76.50
51801;DHT22;37855;53.204;6.568;2024-01-10T18:38:52;-3.40;76.20
51801;DHT22;37855;53.204;6.568;2024-01-10T18:45:03;-3.50;76.40
51801;DHT22;37855;53.204;6.568;2024-01-10T18:54:35;-3.60;76.40
51801;DHT22;37855;53.204;6.568;2024-01-10T18:57:06;-3.60;76.50
51801;DHT22;37855;53.204;6.568;2024-01-10T18:59:40;-3.60;76.50
51801;DHT22;37855;53.204;6.568;2024-01-10T19:02:15;-3.60;76.60
51801;DHT22;37855;53.204;6.568;2024-01-10T19:04:41;-3.60;76.60
51801;DHT22;37855;53.204;6.568;2024-01-10T19:07:07;-3.60;76.60
51801;DHT22;37855;53.204;6.568;2024-01-10T19:09:45;-3.70;76.50
51801;DHT22;37855;53.204;6.568;2024-01-10T19:12:20;-3.60;76.60
51801;DHT22;37855;53.204;6.568;2024-01-10T19:14:46;-3.70;76.70
51801;DHT22;37855;53.204;6.568;2024-01-10T19:17:28;-3.80;77.00
51801;DHT22;37855;53.204;6.568;2024-01-10T19:19:54;-3.70;76.70
51801;DHT22;37855;53.204;6.568;2024-01-10T19:22:26;-3.70;76.70
51801;DHT22;37855;53.204;6.568;2024-01-10T19:24:52;-3.70;77.10
51801;DHT22;37855;53.204;6.568;2024-01-10T19:27:21;-3.70;77.10
51801;DHT22;37855;53.204;6.568;2024-01-10T19:30:12;-3.80;77.00
51801;DHT22;37855;53.204;6.568;2024-01-10T19:33:25;-3.80;77.00
51801;DHT22;37855;53.204;6.568;2024-01-10T19:35:57;-3.70;77.00
51801;DHT22;37855;53.204;6.568;2024-01-10T19:38:32;-3.80;77.20
51801;DHT22;37855;53.204;6.568;2024-01-10T19:41:01;-3.80;77.10
51801;DHT22;37855;53.204;6.568;2024-01-10T19:43:36;-3.80;77.10
51801;DHT22;37855;53.204;6.568;2024-01-10T19:49:43;-3.80;77.10
51801;DHT22;37855;53.204;6.568;2024-01-10T19:52:57;-3.80;76.80
51801;DHT22;37855;53.204;6.568;2024-01-10T19:55:23;-3.70;76.60
51801;DHT22;37855;53.204;6.568;2024-01-10T19:57:50;-3.70;76.60
51801;DHT22;37855;53.204;6.568;2024-01-10T20:00:32;-3.80;76.80
51801;DHT22;37855;53.204;6.568;2024-01-10T20:03:11;-3.90;77.10
51801;DHT22;37855;53.204;6.568;2024-01-10T20:05:37;-3.80;77.10
51801;DHT22;37855;53.204;6.568;2024-01-10T20:08:19;-3.90;77.10
51801;DHT22;37855;53.204;6.568;2024-01-10T20:10:57;-3.90;76.90
51801;DHT22;37855;53.204;6.568;2024-01-10T20:13:25;-3.90;76.50
51801;DHT22;37855;53.204;6.568;2024-01-10T20:16:16;-3.80;75.90
51801;DHT22;37855;53.204;6.568;2024-01-10T20:18:42;-3.90;76.00
51801;DHT22;37855;53.204;6.568;2024-01-10T20:21:08;-3.90;75.80
51801;DHT22;37855;53.204;6.568;2024-01-10T20:23:36;-3.80;75.40
51801;DHT22;37855;53.204;6.568;2024-01-10T20:26:18;-3.80;74.90
51801;DHT22;37855;53.204;6.568;2024-01-10T20:28:47;-3.80;74.60
51801;DHT22;37855;53.204;6.568;2024-01-10T20:31:13;-3.80;74.30
51801;DHT22;37855;53.204;6.568;2024-01-10T20:33:43;-3.80;74.10
51801;DHT22;37855;53.204;6.568;2024-01-10T20:36:09;-3.70;74.40
51801;DHT22;37855;53.204;6.568;2024-01-10T20:38:35;-3.80;74.20
51801;DHT22;37855;53.204;6.568;2024-01-10T20:41:00;-3.80;74.10
51801;DHT22;37855;53.204;6.568;2024-01-10T20:43:27;-3.80;73.90
51801;DHT22;37855;53.204;6.568;2024-01-10T20:46:42;-3.80;73.60
51801;DHT22;37855;53.204;6.568;2024-01-10T20:49:14;-3.80;73.80
51801;DHT22;37855;53.204;6.568;2024-01-10T20:51:39;-3.70;74.00
51801;DHT22;37855;53.204;6.568;2024-01-10T20:54:08;-3.80;73.90
51801;DHT22;37855;53.204;6.568;2024-01-10T20:56:43;-3.80;73.80
51801;DHT22;37855;53.204;6.568;2024-01-10T20:59:24;-3.80;73.90
51801;DHT22;37855;53.204;6.568;2024-01-10T21:01:59;-3.80;73.90
51801;DHT22;37855;53.204;6.568;2024-01-10T21:07:27;-3.80;73.80
51801;DHT22;37855;53.204;6.568;2024-01-10T21:09:53;-3.80;74.00
51801;DHT22;37855;53.204;6.568;2024-01-10T21:12:23;-3.80;74.20
51801;DHT22;37855;53.204;6.568;2024-01-10T21:14:48;-3.80;74.00
51801;DHT22;37855;53.204;6.568;2024-01-10T21:17:16;-3.80;74.20
51801;DHT22;37855;53.204;6.568;2024-01-10T21:19:58;-3.80;74.30
51801;DHT22;37855;53.204;6.568;2024-01-10T21:26:15;-3.80;74.80
51801;DHT22;37855;53.204;6.568;2024-01-10T21:28:40;-3.80;75.00
51801;DHT22;37855;53.204;6.568;2024-01-10T21:31:06;-3.90;75.30
51801;DHT22;37855;53.204;6.568;2024-01-10T21:33:35;-3.90;75.70
51801;DHT22;37855;53.204;6.568;2024-01-10T21:36:16;-3.90;75.70
51801;DHT22;37855;53.204;6.568;2024-01-10T21:42:15;-3.90;76.00
51801;DHT22;37855;53.204;6.568;2024-01-10T21:44:41;-3.90;76.00
51801;DHT22;37855;53.204;6.568;2024-01-10T21:47:08;-3.90;76.40
51801;DHT22;37855;53.204;6.568;2024-01-10T21:49:33;-3.90;76.40
51801;DHT22;37855;53.204;6.568;2024-01-10T21:52:38;-3.90;76.30
51801;DHT22;37855;53.204;6.568;2024-01-10T21:55:37;-3.90;76.40
51801;DHT22;37855;53.204;6.568;2024-01-10T21:58:15;-3.90;76.50
51801;DHT22;37855;53.204;6.568;2024-01-10T22:00:56;-3.90;76.70
51801;DHT22;37855;53.204;6.568;2024-01-10T22:03:25;-4.00;76.80
51801;DHT22;37855;53.204;6.568;2024-01-10T22:05:54;-4.00;76.90
51801;DHT22;37855;53.204;6.568;2024-01-10T22:14:36;-4.00;77.20
51801;DHT22;37855;53.204;6.568;2024-01-10T22:20:43;-4.10;77.90
51801;DHT22;37855;53.204;6.568;2024-01-10T22:23:15;-4.10;78.00
51801;DHT22;37855;53.204;6.568;2024-01-10T22:25:56;-4.20;77.90
51801;DHT22;37855;53.204;6.568;2024-01-10T22:28:23;-4.10;78.10
51801;DHT22;37855;53.204;6.568;2024-01-10T22:31:07;-4.10;77.70
51801;DHT22;37855;53.204;6.568;2024-01-10T22:33:32;-4.10;78.00
51801;DHT22;37855;53.204;6.568;2024-01-10T22:39:55;-4.10;78.30
51801;DHT22;37855;53.204;6.568;2024-01-10T22:44:54;-4.20;78.40
51801;DHT22;37855;53.204;6.568;2024-01-10T22:47:19;-4.20;78.60
51801;DHT22;37855;53.204;6.568;2024-01-10T22:49:45;-4.20;78.40
51801;DHT22;37855;53.204;6.568;2024-01-10T22:52:12;-4.20;78.60
51801;DHT22;37855;53.204;6.568;2024-01-10T22:54:38;-4.20;78.80
51801;DHT22;37855;53.204;6.568;2024-01-10T22:57:04;-4.20;78.60
51801;DHT22;37855;53.204;6.568;2024-01-10T22:59:41;-4.20;78.80
51801;DHT22;37855;53.204;6.568;2024-01-10T23:02:06;-4.20;79.10
51801;DHT22;37855;53.204;6.568;2024-01-10T23:04:33;-4.20;79.10
51801;DHT22;37855;53.204;6.568;2024-01-10T23:06:58;-4.20;78.90
51801;DHT22;37855;53.204;6.568;2024-01-10T23:09:24;-4.20;78.80
51801;DHT22;37855;53.204;6.568;2024-01-10T23:11:50;-4.20;78.70
51801;DHT22;37855;53.204;6.568;2024-01-10T23:14:16;-4.30;79.00
51801;DHT22;37855;53.204;6.568;2024-01-10T23:16:41;-4.30;79.00
51801;DHT22;37855;53.204;6.568;2024-01-10T23:19:10;-4.20;78.70
51801;DHT22;37855;53.204;6.568;2024-01-10T23:21:36;-4.20;78.60
51801;DHT22;37855;53.204;6.568;2024-01-10T23:24:02;-4.30;78.90
51801;DHT22;37855;53.204;6.568;2024-01-10T23:26:29;-4.30;79.20
51801;DHT22;37855;53.204;6.568;2024-01-10T23:29:04;-4.30;79.30
51801;DHT22;37855;53.204;6.568;2024-01-10T23:31:42;-4.20;78.80
51801;DHT22;37855;53.204;6.568;2024-01-10T23:34:26;-4.30;78.90
51801;DHT22;37855;53.204;6.568;2024-01-10T23:40:06;-4.30;79.10
51801;DHT22;37855;53.204;6.568;2024-01-10T23:42:32;-4.30;79.40
51801;DHT22;37855;53.204;6.568;2024-01-10T23:45:05;-4.20;79.40
51801;DHT22;37855;53.204;6.568;2024-01-10T23:47:49;-4.20;78.90
51801;DHT22;37855;53.204;6.568;2024-01-10T23:50:15;-4.10;78.40
51801;DHT22;37855;53.204;6.568;2024-01-10T23:52:56;-4.20;78.60
51801;DHT22;37855;53.204;6.568;2024-01-10T23:55:23;-4.10;78.30
51801;DHT22;37855;53.204;6.568;2024-01-10T23:57:49;-4.20;78.60
